Time;durP1;ratioP1;P1;durP2;ratioP2;P2;SDS_P1;SDS_P2;PMS_P1;PMS_P2;Temp;Humidity;BMP_temperature;BMP_pressure;BME280_temperature;BME280_humidity;BME280_pressure;Samples;Min_cycle;Max_cycle;Signal;HPM_P1;HPM_P2
2021/10/17 00:01:21;;;;;;;7.93;3.37;;;11.60;99.90;;;;;;5070475;28;20814;-51
2021/10/17 00:03:49;;;;;;;3.60;2.60;;;11.80;99.90;;;;;;5070720;28;20438;-50
2021/10/17 00:06:16;;;;;;;7.90;3.20;;;12.10;99.90;;;;;;5070855;28;20436;-51
2021/10/17 00:08:43;;;;;;;9.70;3.10;;;11.90;99.90;;;;;;5070022;28;20467;-52
2021/10/17 00:11:10;;;;;;;5.23;3.27;;;12.30;99.90;;;;;;5070504;28;20894;-51
2021/10/17 00:13:37;;;;;;;5.63;3.63;;;11.90;99.90;;;;;;5071247;28;20590;-51
2021/10/17 00:16:05;;;;;;;5.43;3.33;;;12.00;99.90;;;;;;5073745;28;20589;-51
2021/10/17 00:18:31;;;;;;;5.57;3.00;;;11.90;99.90;;;;;;5073717;28;20476;-51
2021/10/17 00:20:59;;;;;;;10.13;3.50;;;12.30;99.90;;;;;;5074165;28;20442;-51
2021/10/17 00:23:26;;;;;;;3.97;2.80;;;11.90;99.90;;;;;;5074072;28;20420;-51
2021/10/17 00:25:52;;;;;;;7.00;3.40;;;11.90;99.90;;;;;;5074070;28;20839;-52
2021/10/17 00:28:19;;;;;;;6.80;2.93;;;12.20;99.90;;;;;;5073291;28;20940;-51
2021/10/17 00:30:51;;;;;;;6.73;3.80;;;12.10;99.90;;;;;;5055573;28;20596;-53
2021/10/17 00:33:19;;;;;;;5.87;2.77;;;12.30;99.90;;;;;;5055781;28;20457;-53
2021/10/17 00:35:46;;;;;;;10.70;3.53;;;11.80;99.90;;;;;;5074072;28;20779;-50
2021/10/17 00:38:14;;;;;;;12.63;3.47;;;11.80;99.90;;;;;;5055605;28;20472;-51
2021/10/17 00:40:40;;;;;;;4.93;3.00;;;12.00;99.90;;;;;;5055955;28;20597;-52
2021/10/17 00:43:07;;;;;;;7.30;3.20;;;11.80;99.90;;;;;;5055943;28;20573;-52
2021/10/17 00:45:34;;;;;;;7.80;3.20;;;11.70;99.90;;;;;;5073559;28;20947;-51
2021/10/17 00:48:04;;;;;;;7.10;3.23;;;11.80;99.90;;;;;;5072904;28;20474;-51
2021/10/17 00:50:31;;;;;;;5.43;3.10;;;11.60;99.90;;;;;;5055557;28;20987;-51
2021/10/17 00:52:59;;;;;;;11.57;3.13;;;12.10;99.90;;;;;;5073690;28;20435;-52
2021/10/17 00:55:29;;;;;;;4.33;3.07;;;11.60;99.90;;;;;;5055409;28;20890;-52
2021/10/17 00:57:59;;;;;;;7.87;3.33;;;12.10;99.90;;;;;;5054890;28;20464;-52
2021/10/17 01:00:26;;;;;;;7.73;3.50;;;11.70;99.90;;;;;;5073360;28;20428;-52
2021/10/17 01:02:52;;;;;;;5.73;3.40;;;11.80;99.90;;;;;;5072638;28;20900;-51
2021/10/17 01:05:20;;;;;;;8.00;3.20;;;11.80;99.90;;;;;;5055204;28;20448;-52
2021/10/17 01:07:48;;;;;;;4.23;2.70;;;12.30;99.90;;;;;;5072999;28;20492;-51
2021/10/17 01:10:18;;;;;;;7.10;2.67;;;11.50;99.90;;;;;;5073408;28;20443;-51
2021/10/17 01:12:48;;;;;;;5.47;3.10;;;12.00;99.90;;;;;;5073109;28;20429;-51
2021/10/17 01:15:16;;;;;;;7.23;3.27;;;11.80;99.90;;;;;;5054922;28;20845;-52
2021/10/17 01:17:53;;;;;;;3.53;2.53;;;11.80;99.90;;;;;;5054391;28;20557;-51
2021/10/17 01:20:22;;;;;;;7.20;3.63;;;11.90;99.90;;;;;;5055364;28;20530;-51
2021/10/17 01:22:49;;;;;;;9.30;3.40;;;12.10;99.90;;;;;;5055085;28;20442;-52
2021/10/17 01:25:16;;;;;;;4.73;2.90;;;12.20;99.90;;;;;;5054048;28;20448;-53
2021/10/17 01:27:43;;;;;;;7.03;3.57;;;12.10;99.90;;;;;;5072493;28;20424;-51
2021/10/17 01:30:16;;;;;;;6.43;2.63;;;12.10;99.90;;;;;;5054900;28;20456;-50
2021/10/17 01:32:43;;;;;;;6.57;2.77;;;11.70;99.90;;;;;;5055256;28;20612;-51
2021/10/17 01:35:10;;;;;;;5.20;2.40;;;11.70;99.90;;;;;;5072902;28;20479;-50
2021/10/17 01:37:38;;;;;;;20.53;3.20;;;11.90;99.90;;;;;;5054549;28;20458;-51
2021/10/17 01:40:06;;;;;;;6.93;3.37;;;11.80;99.90;;;;;;5054693;28;20461;-52
2021/10/17 01:42:33;;;;;;;5.93;2.87;;;11.70;99.90;;;;;;5054760;28;20456;-51
2021/10/17 01:45:00;;;;;;;7.57;3.10;;;12.10;99.90;;;;;;5055032;28;20811;-51
2021/10/17 01:47:27;;;;;;;6.23;3.00;;;11.80;99.90;;;;;;5054204;28;20447;-51
2021/10/17 01:49:56;;;;;;;3.73;2.97;;;11.70;99.90;;;;;;5054326;28;20546;-53
2021/10/17 01:52:22;;;;;;;5.13;2.40;;;11.60;99.90;;;;;;5054478;28;20450;-52
2021/10/17 01:54:51;;;;;;;7.03;3.00;;;11.40;99.90;;;;;;5054535;28;20560;-51
2021/10/17 01:57:22;;;;;;;5.40;2.90;;;12.00;99.90;;;;;;5054513;28;20453;-52
2021/10/17 01:59:48;;;;;;;6.00;2.70;;;12.00;99.90;;;;;;5054137;28;20820;-51
2021/10/17 02:02:25;;;;;;;8.23;3.30;;;12.00;99.90;;;;;;5054051;28;20819;-52
2021/10/17 02:04:52;;;;;;;5.60;2.73;;;11.70;99.90;;;;;;5054481;28;20481;-51
2021/10/17 02:07:19;;;;;;;4.30;2.50;;;11.90;99.90;;;;;;5072094;28;20777;-52
2021/10/17 02:09:46;;;;;;;5.77;3.00;;;12.00;99.90;;;;;;5053979;28;20479;-51
2021/10/17 02:12:16;;;;;;;7.13;3.37;;;11.80;99.90;;;;;;5054318;28;21202;-51
2021/10/17 02:14:43;;;;;;;6.53;2.83;;;11.80;99.90;;;;;;5054042;28;20476;-52
2021/10/17 02:17:10;;;;;;;6.90;3.60;;;11.80;99.90;;;;;;5053880;28;20454;-52
2021/10/17 02:19:37;;;;;;;4.03;2.70;;;11.90;99.90;;;;;;5053777;28;20983;-52
2021/10/17 02:22:06;;;;;;;5.40;2.80;;;11.80;99.90;;;;;;5054065;28;20450;-51
2021/10/17 02:24:33;;;;;;;9.70;3.00;;;11.50;99.90;;;;;;5054173;28;20893;-51
2021/10/17 02:26:59;;;;;;;7.23;3.70;;;11.70;99.90;;;;;;5053999;28;20447;-52
2021/10/17 02:29:44;;;;;;;4.20;3.37;;;11.40;99.90;;;;;;5053758;28;20825;-50
2021/10/17 02:32:33;;;;;;;8.33;3.20;;;11.30;99.90;;;;;;5070992;28;20507;-51
2021/10/17 02:35:10;;;;;;;8.53;3.40;;;11.70;99.90;;;;;;5053813;28;20478;-51
2021/10/17 02:37:36;;;;;;;8.83;3.87;;;11.50;99.90;;;;;;5071428;28;20457;-51
2021/10/17 02:40:04;;;;;;;7.10;3.27;;;11.60;99.90;;;;;;5053648;28;20504;-51
2021/10/17 02:42:31;;;;;;;6.87;3.27;;;11.60;99.90;;;;;;5053887;28;20446;-51
2021/10/17 02:44:59;;;;;;;7.00;3.30;;;11.90;99.90;;;;;;5071496;28;20842;-52
2021/10/17 02:47:26;;;;;;;5.50;3.30;;;11.60;99.90;;;;;;5053314;28;20446;-51
2021/10/17 02:49:55;;;;;;;4.47;2.90;;;11.60;99.90;;;;;;5063705;23;20582;-51
2021/10/17 02:52:25;;;;;;;4.93;2.60;;;11.50;99.90;;;;;;5050568;28;20447;-51
2021/10/17 02:54:52;;;;;;;11.07;3.27;;;11.50;99.90;;;;;;5067128;28;20468;-51
2021/10/17 02:57:19;;;;;;;6.77;3.43;;;11.60;99.90;;;;;;5050371;28;21007;-51
2021/10/17 02:59:46;;;;;;;7.20;4.17;;;11.40;99.90;;;;;;5066522;28;20468;-51
2021/10/17 03:02:16;;;;;;;9.13;2.90;;;12.00;99.90;;;;;;5066801;28;20450;-50
2021/10/17 03:04:43;;;;;;;6.23;3.30;;;11.50;99.90;;;;;;5067206;28;20469;-51
2021/10/17 03:07:11;;;;;;;4.50;3.33;;;11.40;99.90;;;;;;5066990;28;20443;-51
2021/10/17 03:09:46;;;;;;;15.83;3.53;;;11.50;99.90;;;;;;5066689;28;20818;-51
2021/10/17 03:12:13;;;;;;;6.30;4.57;;;11.70;99.90;;;;;;5066802;28;20868;-50
2021/10/17 03:14:40;;;;;;;8.80;3.60;;;11.60;99.90;;;;;;5051475;28;20438;-50
2021/10/17 03:17:08;;;;;;;10.27;3.37;;;11.60;99.90;;;;;;5066844;28;21014;-50
2021/10/17 03:19:40;;;;;;;8.30;3.20;;;11.60;99.90;;;;;;5066698;28;20479;-50
2021/10/17 03:22:07;;;;;;;5.23;2.90;;;11.60;99.90;;;;;;5066805;28;20459;-50
2021/10/17 03:24:34;;;;;;;4.27;3.30;;;11.40;99.90;;;;;;5067069;28;20895;-50
2021/10/17 03:27:00;;;;;;;7.70;3.70;;;11.50;99.90;;;;;;5066794;28;20426;-50
2021/10/17 03:29:27;;;;;;;6.27;3.27;;;11.50;99.90;;;;;;5066234;28;20952;-50
2021/10/17 03:31:59;;;;;;;9.10;4.17;;;11.50;99.90;;;;;;5066518;28;20436;-50
2021/10/17 03:34:27;;;;;;;6.40;3.20;;;11.20;99.90;;;;;;5067194;28;20443;-49
2021/10/17 03:36:55;;;;;;;5.03;3.90;;;11.60;99.90;;;;;;5066816;28;20450;-50
2021/10/17 03:39:22;;;;;;;6.80;3.30;;;11.30;99.90;;;;;;5066155;28;20480;-50
2021/10/17 03:41:49;;;;;;;6.10;2.87;;;11.20;99.90;;;;;;5066859;28;20815;-50
2021/10/17 03:44:16;;;;;;;6.33;3.60;;;11.30;99.90;;;;;;5066744;28;20425;-50
2021/10/17 03:46:43;;;;;;;6.50;3.13;;;10.90;99.90;;;;;;5066643;28;20948;-52
2021/10/17 03:49:10;;;;;;;9.00;3.97;;;11.10;99.90;;;;;;5052433;28;20467;-50
2021/10/17 03:51:37;;;;;;;8.53;4.13;;;10.60;99.90;;;;;;5070500;28;20426;-49
2021/10/17 03:54:07;;;;;;;7.13;3.47;;;11.00;99.90;;;;;;5070495;28;20512;-50
2021/10/17 03:56:34;;;;;;;6.97;3.37;;;10.70;99.90;;;;;;5070310;28;21026;-50
2021/10/17 03:59:09;;;;;;;8.80;3.40;;;10.60;99.90;;;;;;5069625;28;20556;-50
2021/10/17 04:01:36;;;;;;;9.77;3.30;;;10.20;99.90;;;;;;5070164;28;20949;-50
2021/10/17 04:04:02;;;;;;;6.77;4.40;;;10.80;99.90;;;;;;5070445;28;20551;-50
2021/10/17 04:06:29;;;;;;;8.80;3.37;;;10.70;99.90;;;;;;5054706;28;20862;-49
2021/10/17 04:09:03;;;;;;;6.67;3.40;;;10.50;99.90;;;;;;5069399;28;20860;-49
2021/10/17 04:11:31;;;;;;;5.00;3.30;;;10.80;99.90;;;;;;5069871;28;21048;-50
2021/10/17 04:13:58;;;;;;;5.93;3.03;;;10.50;99.90;;;;;;5070052;28;20442;-50
2021/10/17 04:16:24;;;;;;;10.43;4.33;;;10.60;99.90;;;;;;5069560;28;20597;-50
2021/10/17 04:18:51;;;;;;;7.57;3.43;;;10.50;99.90;;;;;;5069159;28;20466;-50
2021/10/17 04:21:18;;;;;;;8.80;4.10;;;10.20;99.90;;;;;;5054386;28;20412;-50
2021/10/17 04:23:44;;;;;;;7.10;3.57;;;10.40;99.90;;;;;;5069862;28;20449;-50
2021/10/17 04:26:11;;;;;;;6.53;3.80;;;10.30;99.90;;;;;;5069902;28;20474;-49
2021/10/17 04:28:45;;;;;;;5.83;3.20;;;10.00;99.90;;;;;;5069377;28;20981;-50
2021/10/17 04:31:12;;;;;;;6.73;4.60;;;9.50;99.90;;;;;;5069345;28;20454;-50
2021/10/17 04:33:39;;;;;;;12.00;4.07;;;10.20;99.90;;;;;;5052875;28;20461;-49
2021/10/17 04:36:06;;;;;;;5.00;3.37;;;10.30;99.90;;;;;;5054063;28;20581;-50
2021/10/17 04:38:33;;;;;;;12.03;3.67;;;10.20;99.90;;;;;;5068992;28;20462;-50
2021/10/17 04:41:01;;;;;;;6.57;3.40;;;10.00;99.90;;;;;;5054121;28;20480;-50
2021/10/17 04:43:28;;;;;;;7.20;3.80;;;9.80;99.90;;;;;;5053924;28;20438;-50
2021/10/17 04:45:56;;;;;;;8.00;3.43;;;10.10;99.90;;;;;;5053800;28;20426;-50
2021/10/17 04:48:23;;;;;;;7.30;4.13;;;10.30;99.90;;;;;;5068605;28;21032;-50
2021/10/17 04:50:49;;;;;;;9.50;4.00;;;9.90;99.90;;;;;;5069319;28;20447;-50
2021/10/17 04:53:16;;;;;;;6.17;4.30;;;10.20;99.90;;;;;;5053830;28;20437;-50
2021/10/17 04:55:43;;;;;;;8.53;4.03;;;10.00;99.90;;;;;;5068956;28;20479;-50
2021/10/17 04:58:11;;;;;;;9.07;4.10;;;10.00;99.90;;;;;;5052093;28;20467;-50
2021/10/17 05:00:39;;;;;;;11.53;5.80;;;9.90;99.90;;;;;;5067767;28;20846;-50
2021/10/17 05:03:07;;;;;;;11.40;5.77;;;9.90;99.90;;;;;;5069004;28;20448;-50
2021/10/17 05:05:33;;;;;;;8.83;4.13;;;10.30;99.90;;;;;;5069320;28;20953;-50
2021/10/17 05:08:01;;;;;;;7.33;4.47;;;10.00;99.90;;;;;;5053147;28;20434;-50
2021/10/17 05:10:31;;;;;;;8.23;3.40;;;9.50;99.90;;;;;;5068964;28;20577;-50
2021/10/17 05:12:58;;;;;;;10.63;3.90;;;10.30;99.90;;;;;;5068923;28;20457;-50
2021/10/17 05:15:25;;;;;;;4.93;3.43;;;9.90;99.90;;;;;;5069067;28;20481;-50
2021/10/17 05:17:52;;;;;;;7.67;4.10;;;10.20;99.90;;;;;;5068218;28;20450;-50
2021/10/17 05:20:20;;;;;;;6.60;2.90;;;9.80;99.90;;;;;;5068602;28;20504;-50
2021/10/17 05:22:47;;;;;;;6.87;2.93;;;9.90;99.90;;;;;;5053161;28;20431;-50
2021/10/17 05:25:14;;;;;;;11.50;6.67;;;10.00;99.90;;;;;;5068680;28;20566;-50
2021/10/17 05:27:41;;;;;;;12.97;7.10;;;10.00;99.90;;;;;;5051300;28;20458;-50
2021/10/17 05:30:09;;;;;;;6.77;4.17;;;9.80;99.90;;;;;;5068417;28;20451;-50
2021/10/17 05:32:36;;;;;;;6.77;3.53;;;10.20;99.90;;;;;;5068420;28;20493;-50
2021/10/17 05:35:03;;;;;;;6.97;4.00;;;9.70;99.90;;;;;;5051479;28;20557;-50
2021/10/17 05:37:31;;;;;;;7.17;3.73;;;10.10;99.90;;;;;;5068191;28;20813;-50
2021/10/17 05:39:58;;;;;;;8.80;4.00;;;10.10;99.90;;;;;;5052428;28;20456;-50
2021/10/17 05:42:25;;;;;;;6.50;3.30;;;9.80;99.90;;;;;;5068051;28;20543;-50
2021/10/17 05:44:52;;;;;;;5.27;3.63;;;10.10;99.90;;;;;;5068059;28;20455;-50
2021/10/17 05:47:21;;;;;;;7.57;3.23;;;10.10;99.90;;;;;;5067892;28;20450;-50
2021/10/17 05:49:48;;;;;;;6.40;3.00;;;10.00;99.90;;;;;;5067366;28;20505;-50
2021/10/17 05:52:15;;;;;;;7.17;2.87;;;9.80;99.90;;;;;;5068031;28;20495;-50
2021/10/17 05:54:43;;;;;;;8.30;3.10;;;10.10;99.90;;;;;;5067780;28;20429;-50
2021/10/17 05:57:10;;;;;;;7.63;3.73;;;10.20;99.90;;;;;;5067755;28;20482;-51
2021/10/17 05:59:36;;;;;;;6.60;3.10;;;10.30;99.90;;;;;;5052186;28;20465;-51
2021/10/17 06:02:03;;;;;;;5.37;2.80;;;10.00;99.90;;;;;;5067939;28;20541;-51
2021/10/17 06:04:34;;;;;;;7.27;3.90;;;10.40;99.90;;;;;;5067534;28;20436;-51
2021/10/17 06:07:05;;;;;;;11.00;4.63;;;10.50;99.90;;;;;;5068040;28;20442;-51
2021/10/17 06:09:35;;;;;;;10.90;3.30;;;9.90;99.90;;;;;;5067195;28;20467;-51
2021/10/17 06:12:06;;;;;;;8.53;3.60;;;10.30;99.90;;;;;;5067437;28;20509;-51
2021/10/17 06:14:36;;;;;;;6.23;3.40;;;10.50;99.90;;;;;;5068109;28;20443;-51
2021/10/17 06:17:04;;;;;;;7.20;3.90;;;10.50;99.90;;;;;;5067693;28;20521;-50
2021/10/17 06:19:30;;;;;;;5.97;3.63;;;10.50;99.90;;;;;;5051758;28;20462;-50
2021/10/17 06:22:02;;;;;;;5.10;2.83;;;10.60;99.90;;;;;;5050950;28;20868;-51
2021/10/17 06:24:31;;;;;;;7.90;3.43;;;10.20;99.90;;;;;;5050857;28;20446;-51
2021/10/17 06:26:58;;;;;;;10.67;3.37;;;10.10;99.90;;;;;;5067375;28;20447;-50
2021/10/17 06:29:26;;;;;;;5.30;2.70;;;10.70;99.90;;;;;;5066845;28;20468;-50
2021/10/17 06:31:53;;;;;;;6.17;3.03;;;10.70;99.90;;;;;;5067707;28;20446;-50
2021/10/17 06:34:20;;;;;;;8.40;3.30;;;10.80;99.90;;;;;;5067599;28;20492;-50
2021/10/17 06:36:48;;;;;;;9.20;4.23;;;10.50;99.90;;;;;;5067336;28;20479;-50
2021/10/17 06:39:14;;;;;;;9.37;3.60;;;10.60;99.90;;;;;;5051557;28;20513;-51
2021/10/17 06:41:41;;;;;;;8.73;3.60;;;10.80;99.90;;;;;;5067262;28;20479;-51
2021/10/17 06:44:16;;;;;;;9.03;3.33;;;10.80;99.90;;;;;;5066953;28;20537;-50
2021/10/17 06:46:46;;;;;;;9.67;4.63;;;10.80;99.90;;;;;;5067117;28;21018;-51
2021/10/17 06:49:13;;;;;;;6.73;4.37;;;11.00;99.90;;;;;;5066941;28;20513;-50
2021/10/17 06:51:41;;;;;;;5.83;2.93;;;10.70;99.90;;;;;;5067125;28;20429;-51
2021/10/17 06:54:08;;;;;;;7.73;3.90;;;10.90;99.90;;;;;;5067384;28;21013;-50
2021/10/17 06:56:35;;;;;;;8.37;3.90;;;10.40;99.90;;;;;;5067189;28;20565;-50
2021/10/17 06:59:02;;;;;;;8.10;3.80;;;10.40;99.90;;;;;;5066622;28;20889;-50
2021/10/17 07:01:30;;;;;;;6.57;3.20;;;11.20;99.90;;;;;;5066924;28;20458;-51
2021/10/17 07:03:59;;;;;;;8.53;3.30;;;10.50;99.90;;;;;;5066924;28;20834;-51
2021/10/17 07:06:36;;;;;;;8.33;3.20;;;11.10;99.90;;;;;;5067135;28;21067;-50
2021/10/17 07:09:09;;;;;;;7.33;3.33;;;10.90;99.90;;;;;;5066406;28;20470;-51
2021/10/17 07:11:43;;;;;;;6.50;3.43;;;11.30;99.90;;;;;;5066778;28;20478;-51
2021/10/17 07:14:24;;;;;;;7.50;3.50;;;11.10;99.90;;;;;;5066821;28;20423;-50
2021/10/17 07:17:14;;;;;;;7.90;3.43;;;11.10;99.90;;;;;;5066849;28;20501;-50
2021/10/17 07:19:42;;;;;;;7.93;4.30;;;11.00;99.90;;;;;;5066347;28;20494;-50
2021/10/17 07:22:09;;;;;;;11.70;4.40;;;11.20;99.90;;;;;;5066414;28;20493;-50
2021/10/17 07:24:42;;;;;;;12.30;3.83;;;11.20;99.90;;;;;;5069361;28;20509;-50
2021/10/17 07:27:08;;;;;;;6.30;3.80;;;11.30;99.90;;;;;;5070720;28;20445;-50
2021/10/17 07:29:35;;;;;;;9.33;4.17;;;11.20;99.90;;;;;;5070450;28;20463;-50
2021/10/17 07:32:02;;;;;;;7.70;3.77;;;11.70;99.90;;;;;;5070819;28;20578;-50
2021/10/17 07:34:29;;;;;;;7.03;3.53;;;11.60;99.90;;;;;;5070558;28;20570;-50
2021/10/17 07:36:57;;;;;;;9.87;4.10;;;11.70;99.90;;;;;;5070665;28;20490;-51
2021/10/17 07:39:29;;;;;;;6.77;3.43;;;11.60;99.90;;;;;;5070112;28;20470;-51
2021/10/17 07:41:56;;;;;;;8.57;3.93;;;11.60;99.90;;;;;;5070634;28;20967;-51
2021/10/17 07:44:24;;;;;;;7.73;4.00;;;11.70;99.90;;;;;;5070346;28;20456;-50
2021/10/17 07:46:59;;;;;;;15.73;3.77;;;11.30;99.90;;;;;;5054705;28;20438;-51
2021/10/17 07:49:29;;;;;;;11.10;4.13;;;11.70;99.90;;;;;;5070050;28;21245;-51
2021/10/17 07:51:58;;;;;;;9.70;4.67;;;11.70;99.90;;;;;;5070329;28;20451;-51
2021/10/17 07:54:26;;;;;;;10.57;3.57;;;11.90;99.90;;;;;;5070320;28;20543;-51
2021/10/17 07:56:53;;;;;;;11.70;5.23;;;11.30;99.90;;;;;;5069896;28;20489;-50
2021/10/17 07:59:26;;;;;;;9.63;4.70;;;12.30;99.90;;;;;;5069682;28;20503;-51
2021/10/17 08:01:53;;;;;;;8.10;5.40;;;11.90;99.90;;;;;;5053180;28;20973;-50
2021/10/17 08:04:40;;;;;;;8.93;3.80;;;11.50;99.90;;;;;;5070178;28;20452;-50
2021/10/17 08:07:17;;;;;;;8.73;3.90;;;11.90;99.90;;;;;;5069558;28;20450;-51
2021/10/17 08:09:46;;;;;;;9.17;4.00;;;12.00;99.90;;;;;;5069380;28;20467;-51
2021/10/17 08:12:13;;;;;;;7.23;4.53;;;12.00;99.90;;;;;;5069651;28;20456;-50
2021/10/17 08:14:39;;;;;;;10.03;3.60;;;12.00;99.90;;;;;;5069863;28;20830;-51
2021/10/17 08:17:07;;;;;;;5.43;3.93;;;11.80;99.90;;;;;;5069888;28;20917;-50
2021/10/17 08:19:52;;;;;;;13.50;4.67;;;12.00;99.90;;;;;;5069230;28;20978;-50
2021/10/17 08:22:21;;;;;;;8.27;4.40;;;11.80;99.90;;;;;;5069875;28;20491;-50
2021/10/17 08:24:48;;;;;;;9.63;4.47;;;12.10;99.90;;;;;;5069631;28;20577;-51
2021/10/17 08:27:15;;;;;;;9.30;4.57;;;12.20;99.90;;;;;;5069461;28;20427;-51
2021/10/17 08:29:42;;;;;;;7.97;4.27;;;12.20;99.70;;;;;;5068852;28;20889;-50
2021/10/17 08:32:09;;;;;;;7.80;4.30;;;12.30;99.60;;;;;;5069450;28;20450;-51
2021/10/17 08:34:41;;;;;;;11.67;4.50;;;12.30;99.40;;;;;;5069261;28;20472;-51
2021/10/17 08:37:12;;;;;;;6.43;4.60;;;12.40;99.40;;;;;;5053595;28;20645;-51
2021/10/17 08:40:07;;;;;;;8.30;4.53;;;12.30;99.20;;;;;;5051923;28;20473;-53
2021/10/17 08:42:57;;;;;;;10.33;5.70;;;12.50;99.20;;;;;;5054135;28;20444;-51
2021/10/17 08:45:29;;;;;;;13.10;4.43;;;12.40;99.10;;;;;;5052418;28;21015;-51
2021/10/17 08:48:01;;;;;;;12.40;5.73;;;12.40;99.00;;;;;;5068549;28;20439;-51
2021/10/17 08:50:28;;;;;;;15.60;4.77;;;12.50;99.10;;;;;;5075296;22;20522;-51
2021/10/17 08:52:55;;;;;;;9.13;5.17;;;12.70;99.10;;;;;;5033637;28;20447;-52
2021/10/17 08:55:23;;;;;;;7.50;4.10;;;12.60;99.00;;;;;;5032233;28;20535;-52
2021/10/17 08:57:57;;;;;;;10.33;4.27;;;12.50;98.90;;;;;;5031718;28;20513;-51
2021/10/17 09:00:28;;;;;;;11.50;5.07;;;12.90;99.00;;;;;;5031894;28;21056;-52
2021/10/17 09:02:55;;;;;;;8.13;4.20;;;13.20;99.10;;;;;;5032413;28;20441;-52
2021/10/17 09:05:34;;;;;;;8.13;4.37;;;12.90;98.90;;;;;;5032366;28;20455;-53
2021/10/17 09:08:00;;;;;;;9.47;5.13;;;12.90;98.70;;;;;;5031166;28;20465;-51
2021/10/17 09:10:42;;;;;;;8.40;4.60;;;12.90;98.60;;;;;;5031780;28;20856;-53
2021/10/17 09:13:12;;;;;;;8.67;4.37;;;13.30;98.50;;;;;;5032966;28;20921;-54
2021/10/17 09:15:40;;;;;;;14.67;4.70;;;12.70;98.10;;;;;;5033274;28;20902;-52
2021/10/17 09:18:12;;;;;;;6.73;4.33;;;13.10;98.10;;;;;;5032483;28;20482;-52
2021/10/17 09:20:54;;;;;;;8.03;4.53;;;13.20;98.10;;;;;;5032783;28;20456;-52
2021/10/17 09:23:33;;;;;;;15.87;5.23;;;13.30;98.00;;;;;;5033327;28;20416;-51
2021/10/17 09:26:08;;;;;;;9.23;3.50;;;13.40;97.90;;;;;;5032789;28;20485;-53
2021/10/17 09:28:37;;;;;;;9.60;4.17;;;13.40;97.60;;;;;;5032631;28;20763;-52
2021/10/17 09:31:06;;;;;;;7.20;3.77;;;13.60;97.50;;;;;;5032997;28;20493;-52
2021/10/17 09:33:33;;;;;;;12.07;4.00;;;13.90;97.50;;;;;;5032536;28;20508;-52
2021/10/17 09:36:14;;;;;;;9.07;4.87;;;13.30;97.00;;;;;;5031020;28;20453;-53
2021/10/17 09:39:09;;;;;;;12.77;4.70;;;13.70;96.80;;;;;;5032118;28;20844;-53
2021/10/17 09:41:49;;;;;;;12.00;4.67;;;14.10;96.80;;;;;;5030938;28;20459;-51
2021/10/17 09:44:16;;;;;;;6.70;3.50;;;13.70;96.60;;;;;;5031287;28;20450;-52
2021/10/17 09:46:56;;;;;;;9.57;3.50;;;13.80;96.60;;;;;;5031568;28;20959;-51
2021/10/17 09:49:24;;;;;;;6.70;3.70;;;13.40;96.30;;;;;;5040799;28;20545;-52
2021/10/17 09:52:10;;;;;;;7.30;4.60;;;13.50;96.50;;;;;;5051974;28;20444;-53
2021/10/17 09:54:37;;;;;;;9.43;3.87;;;13.10;96.30;;;;;;5051989;28;20448;-52
2021/10/17 09:57:07;;;;;;;7.30;5.00;;;13.40;96.80;;;;;;5051870;28;20942;-51
2021/10/17 09:59:35;;;;;;;8.10;4.50;;;13.20;96.90;;;;;;5051470;28;20453;-53
2021/10/17 10:02:05;;;;;;;6.70;3.67;;;13.20;97.00;;;;;;5051558;28;20465;-53
2021/10/17 10:04:32;;;;;;;5.97;3.57;;;13.40;97.20;;;;;;5034070;28;20454;-52
2021/10/17 10:06:59;;;;;;;8.60;4.00;;;13.30;97.10;;;;;;5051309;28;20431;-52
2021/10/17 10:09:29;;;;;;;10.03;3.83;;;12.90;96.80;;;;;;5051569;28;20449;-52
2021/10/17 10:11:57;;;;;;;5.73;3.30;;;13.50;96.80;;;;;;5051956;28;20453;-52
2021/10/17 10:14:26;;;;;;;6.50;3.63;;;13.80;96.80;;;;;;5051477;28;20456;-52
2021/10/17 10:16:56;;;;;;;5.93;3.10;;;13.70;96.60;;;;;;5051184;28;20433;-53
2021/10/17 10:19:25;;;;;;;9.33;3.73;;;13.80;96.60;;;;;;5050751;28;20445;-51
2021/10/17 10:21:52;;;;;;;11.87;4.33;;;13.60;96.20;;;;;;5033144;28;20456;-51
2021/10/17 10:24:20;;;;;;;8.43;4.00;;;14.00;96.30;;;;;;5051682;28;20432;-52
2021/10/17 10:26:52;;;;;;;6.00;3.73;;;13.90;96.20;;;;;;5051542;28;20446;-52
2021/10/17 10:29:28;;;;;;;6.60;3.60;;;13.90;96.10;;;;;;5050744;28;20464;-52
2021/10/17 10:31:56;;;;;;;15.37;4.70;;;14.50;96.30;;;;;;5051455;28;20988;-53
2021/10/17 10:35:03;;;;;;;11.10;4.40;;;14.20;96.20;;;;;;5033196;28;20445;-52
2021/10/17 10:37:30;;;;;;;7.97;3.40;;;14.60;96.20;;;;;;5051470;28;20470;-51
2021/10/17 10:40:08;;;;;;;9.77;3.60;;;14.60;96.10;;;;;;5033284;28;20471;-51
2021/10/17 10:42:36;;;;;;;5.73;3.53;;;14.40;96.00;;;;;;5051263;28;20442;-52
2021/10/17 10:45:24;;;;;;;11.50;4.00;;;14.40;95.90;;;;;;5051144;28;20442;-54
2021/10/17 10:48:16;;;;;;;10.90;4.47;;;14.90;95.90;;;;;;5050825;28;20959;-53
2021/10/17 10:50:44;;;;;;;9.93;4.20;;;15.10;95.90;;;;;;5051080;28;20448;-53
2021/10/17 10:53:12;;;;;;;9.17;3.87;;;15.00;95.90;;;;;;5050752;28;20426;-53
2021/10/17 10:55:49;;;;;;;8.20;4.50;;;15.20;95.80;;;;;;5051408;28;20768;-52
2021/10/17 10:58:24;;;;;;;12.37;3.93;;;15.50;95.70;;;;;;5050238;28;20509;-51
2021/10/17 11:00:55;;;;;;;9.37;5.00;;;15.00;95.60;;;;;;5050696;28;20427;-53
2021/10/17 11:03:24;;;;;;;11.07;4.10;;;15.10;95.70;;;;;;5051107;28;20439;-53
2021/10/17 11:06:17;;;;;;;7.60;3.43;;;15.10;95.80;;;;;;5051119;28;20737;-52
2021/10/17 11:09:04;;;;;;;8.57;4.40;;;15.10;95.90;;;;;;5050062;28;20802;-53
2021/10/17 11:11:38;;;;;;;10.63;4.17;;;14.70;95.90;;;;;;5050926;28;20785;-53
2021/10/17 11:14:15;;;;;;;8.10;4.20;;;14.90;96.10;;;;;;5050788;28;20470;-53
2021/10/17 11:16:43;;;;;;;10.53;5.43;;;14.90;96.20;;;;;;5050881;28;20420;-51
2021/10/17 11:19:10;;;;;;;7.47;4.87;;;14.90;96.20;;;;;;5050245;28;20487;-52
2021/10/17 11:21:36;;;;;;;7.80;3.83;;;15.00;96.40;;;;;;5050293;28;20435;-52
2021/10/17 11:24:05;;;;;;;11.40;4.40;;;15.10;96.50;;;;;;5051024;28;20497;-52
2021/10/17 11:26:32;;;;;;;9.00;4.53;;;15.10;96.50;;;;;;5050561;28;20488;-52
2021/10/17 11:29:00;;;;;;;8.70;3.83;;;15.10;96.40;;;;;;5050690;28;20432;-52
2021/10/17 11:31:27;;;;;;;4.60;3.47;;;14.80;96.20;;;;;;5051288;28;20496;-52
2021/10/17 11:33:54;;;;;;;12.80;5.33;;;15.00;96.20;;;;;;5050922;28;20439;-53
2021/10/17 11:36:21;;;;;;;8.77;4.23;;;15.30;96.20;;;;;;5050560;28;20441;-52
2021/10/17 11:38:53;;;;;;;9.40;4.83;;;15.90;96.50;;;;;;5050432;28;20489;-54
2021/10/17 11:41:20;;;;;;;8.87;4.30;;;15.20;96.10;;;;;;5050463;28;20550;-53
2021/10/17 11:43:48;;;;;;;10.83;4.20;;;15.40;96.20;;;;;;5032745;28;20875;-52
2021/10/17 11:46:17;;;;;;;12.53;4.80;;;15.00;96.00;;;;;;5050321;28;20934;-52
2021/10/17 11:48:46;;;;;;;13.73;5.00;;;15.20;96.10;;;;;;5049672;28;20470;-52
2021/10/17 11:51:17;;;;;;;12.50;4.23;;;15.20;96.20;;;;;;5050879;28;20919;-52
2021/10/17 11:53:54;;;;;;;13.23;4.60;;;15.10;96.20;;;;;;5051009;28;20487;-51
2021/10/17 11:56:22;;;;;;;11.53;4.83;;;15.40;96.50;;;;;;5050641;28;20476;-53
2021/10/17 11:58:49;;;;;;;9.53;4.33;;;15.10;96.40;;;;;;5050147;28;20487;-54
2021/10/17 12:01:17;;;;;;;10.87;4.57;;;15.20;96.60;;;;;;5050440;28;20437;-52
2021/10/17 12:03:49;;;;;;;9.57;4.50;;;15.10;96.40;;;;;;5050896;28;20950;-52
2021/10/17 12:06:19;;;;;;;12.13;4.93;;;15.30;96.40;;;;;;5050553;28;20435;-52
2021/10/17 12:08:50;;;;;;;11.87;4.50;;;15.30;96.40;;;;;;5050101;28;20507;-52
2021/10/17 12:11:18;;;;;;;11.77;4.90;;;15.40;96.50;;;;;;5053693;28;20447;-53
2021/10/17 12:14:06;;;;;;;6.97;3.97;;;15.30;96.50;;;;;;5053592;28;20433;-52
2021/10/17 12:16:37;;;;;;;9.07;5.17;;;15.40;96.60;;;;;;5035848;28;20447;-53
2021/10/17 12:19:06;;;;;;;12.20;4.67;;;15.30;96.60;;;;;;5053244;28;20846;-52
2021/10/17 12:21:45;;;;;;;8.70;4.40;;;15.20;96.40;;;;;;5054543;28;20431;-52
2021/10/17 12:24:16;;;;;;;16.27;5.20;;;15.40;96.60;;;;;;5036726;28;20475;-52
2021/10/17 12:26:53;;;;;;;10.00;5.07;;;15.60;96.70;;;;;;5037310;28;20457;-52
2021/10/17 12:29:23;;;;;;;7.90;4.33;;;15.70;96.70;;;;;;5053584;28;20446;-52
2021/10/17 12:31:52;;;;;;;8.80;4.43;;;15.10;96.40;;;;;;5054300;28;20443;-51
2021/10/17 12:34:38;;;;;;;12.10;4.93;;;15.50;96.70;;;;;;5054198;28;20498;-51
2021/10/17 12:37:06;;;;;;;9.30;5.60;;;15.60;96.70;;;;;;5054411;28;20434;-52
2021/10/17 12:39:33;;;;;;;8.83;4.63;;;15.40;96.80;;;;;;5052759;28;20516;-51
2021/10/17 12:42:00;;;;;;;11.20;5.43;;;15.00;96.70;;;;;;5034563;28;20457;-52
2021/10/17 12:44:26;;;;;;;12.73;5.23;;;15.60;97.10;;;;;;5053255;28;20441;-52
2021/10/17 12:47:02;;;;;;;9.80;4.30;;;15.40;97.10;;;;;;5053404;28;20401;-51
2021/10/17 12:49:37;;;;;;;10.83;4.80;;;15.40;97.20;;;;;;5053039;28;20469;-51
2021/10/17 12:52:08;;;;;;;9.83;5.07;;;15.50;97.10;;;;;;5053522;28;20431;-52
2021/10/17 12:54:36;;;;;;;14.90;5.27;;;15.80;97.30;;;;;;5052441;28;20501;-52
2021/10/17 12:57:05;;;;;;;10.47;6.33;;;15.50;97.10;;;;;;5053203;28;20431;-52
2021/10/17 12:59:33;;;;;;;9.90;5.27;;;15.60;97.10;;;;;;5052888;28;20486;-52